Página principal
METAR-TAF:

METAR-TAF

Aeroportos :

Florianópolis, Santa Catarina, Brasil

Aeroporto Internacional de Florianópolis

latitude: 27-40S, longitude: 048-33W, altura: 5 m

Observação actual do tempo

O boletim foi feito há 28 minutos, às 23:00 UTC
Vento 7 kt de nordeste
Temperatura 22°C
Humidade 60%
Pressão 1018 hPa
Visibilidade 10 km ou mais
Nuvens fragmentadasa uma altura de 4000 ft

METAR: SBFL 122300Z 04007KT 9999 BKN040 22/14 Q1018

Hora: 21:28 (23:28 UTC)

Previsão

O boletim foi feito há 9 horas e 28 minutos, às 14:00 UTC
Previsão válida de 12 às 18 UTC a 13 às 18 UTC
Vento 8 kt de nor-nordeste
Visibilidade 10 km ou mais
Nuvens dispersasa uma altura de 3000 ft
Probabilidade 30%
de 12 às 18 UTC a 12 às 20 UTC
Vento 8 kt de este
Tornando-se
de 13 às 08 UTC a 13 às 12 UTC
Vento 12 kt de norte
Nuvens fragmentadasa uma altura de 2500 ft

TAF: SBFL 121400Z 1218/1318 03008KT 9999 SCT030 TN20/1307Z TX27/1317Z PROB30 1218/1220 08008KT BECMG 1308/1312 36012KT BKN025 RMK PEB

Observações e previsões do tempo de mais de 4000 aeroportos (mensagens METAR e TAF).

As estações disponíveis são os pontos amarelos e vermelhos sobre o mapa.

Mova o rato sobre o mapa para ver o nome da estação.

Depois clique no ponto para visualizar as observações e previsões meteorológicas.

Para alterar o mapa : clique nos botões verdes com uma cruz preta para aumentar o zoom; no botão verde com uma pitada de zoom; ou nas setas verdes para mapas adjacentes.


METAR-TAF: